Time;durP1;ratioP1;P1;durP2;ratioP2;P2;SDS_P1;SDS_P2;PMS_P1;PMS_P2;Temp;Humidity;BMP_temperature;BMP_pressure;BME280_temperature;BME280_humidity;BME280_pressure;Samples;Min_cycle;Max_cycle;Signal;HPM_P1;HPM_P2
2023/05/19 00:01:53;;;;;;;9.73;4.28;;;;;;;9.41;100.00;101385.09;5051900;28;20103;-80
2023/05/19 00:04:20;;;;;;;10.63;4.93;;;;;;;9.40;100.00;101389.19;5051392;28;20039;-80
2023/05/19 00:06:49;;;;;;;8.30;4.53;;;;;;;9.35;100.00;101387.69;5052893;28;20055;-80
2023/05/19 00:09:15;;;;;;;9.90;4.68;;;;;;;9.30;100.00;101396.84;5051703;28;20021;-80
2023/05/19 00:11:41;;;;;;;12.30;4.90;;;;;;;9.28;100.00;101399.38;5052678;28;20104;-79
2023/05/19 00:14:08;;;;;;;7.68;4.47;;;;;;;9.18;100.00;101403.38;5051297;28;20029;-79
2023/05/19 00:16:35;;;;;;;7.43;4.88;;;;;;;9.17;100.00;101404.59;5052629;28;20036;-78
2023/05/19 00:19:02;;;;;;;9.63;4.82;;;;;;;9.11;100.00;101401.53;5051268;28;20033;-81
2023/05/19 00:21:28;;;;;;;7.75;4.80;;;;;;;9.06;100.00;101404.16;5052988;28;20036;-80
2023/05/19 00:23:54;;;;;;;9.60;4.88;;;;;;;9.02;100.00;101398.56;5052766;28;20025;-78
2023/05/19 00:26:21;;;;;;;8.60;4.22;;;;;;;8.94;100.00;101393.56;5052649;28;20029;-78
2023/05/19 00:28:47;;;;;;;9.38;4.32;;;;;;;8.91;100.00;101405.84;5051211;28;20020;-79
2023/05/19 00:31:12;;;;;;;11.63;5.28;;;;;;;8.87;100.00;101396.59;5051179;28;20033;-79
2023/05/19 00:33:37;;;;;;;7.28;4.72;;;;;;;8.81;100.00;101404.91;5051225;28;20116;-80
2023/05/19 00:36:03;;;;;;;10.60;5.28;;;;;;;8.77;100.00;101398.53;5052777;28;20035;-80
2023/05/19 00:38:34;;;;;;;11.02;5.03;;;;;;;8.72;100.00;101404.78;5034580;28;20068;-80
2023/05/19 00:41:00;;;;;;;9.63;4.55;;;;;;;8.64;100.00;101401.38;5054514;28;20025;-80
2023/05/19 00:43:26;;;;;;;8.80;4.68;;;;;;;8.63;100.00;101405.47;5054685;28;20493;-79
2023/05/19 00:45:51;;;;;;;9.18;4.57;;;;;;;8.60;100.00;101400.69;5054623;28;20112;-79
2023/05/19 00:48:17;;;;;;;12.98;5.20;;;;;;;8.60;100.00;101402.75;5038062;28;20025;-78
2023/05/19 00:50:44;;;;;;;9.85;5.35;;;;;;;8.58;100.00;101403.19;5055065;28;20031;-79
2023/05/19 00:53:09;;;;;;;8.07;5.15;;;;;;;8.58;100.00;101399.53;5055927;28;20027;-80
2023/05/19 00:55:36;;;;;;;8.77;5.30;;;;;;;8.57;100.00;101393.03;5054503;28;20041;-78
2023/05/19 00:58:03;;;;;;;11.00;5.35;;;;;;;8.62;100.00;101403.06;5055702;28;20082;-78
2023/05/19 01:00:29;;;;;;;11.55;5.80;;;;;;;8.65;100.00;101405.84;5055500;28;20029;-80
2023/05/19 01:02:54;;;;;;;8.65;4.78;;;;;;;8.69;100.00;101406.50;5054878;28;20027;-78
2023/05/19 01:05:20;;;;;;;16.25;7.95;;;;;;;8.67;100.00;101394.75;5036325;28;20021;-80
2023/05/19 01:07:46;;;;;;;20.00;10.02;;;;;;;8.73;100.00;101392.94;5052081;28;20048;-79
2023/05/19 01:10:11;;;;;;;16.75;8.23;;;;;;;8.76;100.00;101392.03;5053330;28;20021;-80
2023/05/19 01:12:37;;;;;;;13.27;8.23;;;;;;;8.78;100.00;101392.38;5050464;28;20082;-80
2023/05/19 01:15:04;;;;;;;13.15;5.72;;;;;;;8.77;100.00;101392.84;5033548;28;20035;-80
2023/05/19 01:17:39;;;;;;;8.57;5.78;;;;;;;8.80;100.00;101398.41;5034636;28;20024;-79
2023/05/19 01:20:21;;;;;;;9.48;5.07;;;;;;;8.87;100.00;101396.59;5051314;28;20040;-80
2023/05/19 01:23:17;;;;;;;12.13;5.18;;;;;;;8.91;100.00;101400.94;5052613;28;20039;-80
2023/05/19 01:25:51;;;;;;;9.77;4.93;;;;;;;8.93;100.00;101401.31;5052258;28;20033;-79
2023/05/19 01:28:25;;;;;;;9.05;4.68;;;;;;;8.97;100.00;101392.63;5053254;28;20459;-78
2023/05/19 01:30:53;;;;;;;9.63;6.25;;;;;;;8.96;100.00;101400.38;5051864;28;20112;-79
2023/05/19 01:33:20;;;;;;;10.38;5.13;;;;;;;8.98;100.00;101402.78;5053198;28;20087;-80
2023/05/19 01:35:47;;;;;;;7.30;5.35;;;;;;;8.98;100.00;101409.28;5051780;28;20017;-79
2023/05/19 01:38:15;;;;;;;13.55;5.32;;;;;;;8.99;100.00;101413.75;5051944;28;20029;-78
2023/05/19 01:40:42;;;;;;;6.60;4.32;;;;;;;9.00;100.00;101409.63;5035211;28;20406;-80
2023/05/19 01:43:10;;;;;;;7.93;4.25;;;;;;;9.01;100.00;101411.22;5054022;28;20033;-80
2023/05/19 01:45:36;;;;;;;6.40;4.78;;;;;;;9.00;100.00;101403.91;5054508;28;20040;-80
2023/05/19 01:48:04;;;;;;;7.25;4.53;;;;;;;8.99;100.00;101408.03;5053570;28;20025;-80
2023/05/19 01:50:30;;;;;;;9.27;4.65;;;;;;;8.95;100.00;101398.00;5036237;28;20389;-79
2023/05/19 01:52:55;;;;;;;7.75;4.82;;;;;;;8.94;100.00;101402.91;5053351;28;20048;-79
2023/05/19 01:55:22;;;;;;;10.23;5.45;;;;;;;8.94;100.00;101408.59;5053194;28;20449;-80
2023/05/19 01:58:06;;;;;;;10.10;4.80;;;;;;;8.92;100.00;101401.75;5053428;28;20478;-79
2023/05/19 02:00:53;;;;;;;7.10;5.03;;;;;;;8.88;100.00;101407.56;5053294;28;20029;-80
2023/05/19 02:03:33;;;;;;;9.43;5.07;;;;;;;8.83;100.00;101400.38;5053370;28;20100;-80
2023/05/19 02:06:36;;;;;;;9.40;5.15;;;;;;;8.81;100.00;101393.53;5053073;28;20024;-81
2023/05/19 02:09:07;;;;;;;8.98;5.82;;;;;;;8.68;100.00;101392.72;5054596;28;20025;-81
2023/05/19 02:11:39;;;;;;;8.45;5.10;;;;;;;8.70;100.00;101405.28;5053066;28;20056;-79
2023/05/19 02:14:17;;;;;;;10.25;5.68;;;;;;;8.64;100.00;101400.56;5053344;28;20637;-80
2023/05/19 02:16:47;;;;;;;8.77;5.00;;;;;;;8.62;100.00;101394.53;5053155;28;20525;-81
2023/05/19 02:19:27;;;;;;;9.50;5.13;;;;;;;8.64;100.00;101400.56;5054934;28;20029;-81
2023/05/19 02:21:52;;;;;;;6.70;5.03;;;;;;;8.58;100.00;101400.34;5060052;28;20086;-78
2023/05/19 02:24:19;;;;;;;8.30;5.10;;;;;;;8.60;100.00;101402.75;5060946;28;20033;-78
2023/05/19 02:26:45;;;;;;;9.32;5.55;;;;;;;8.62;100.00;101406.72;5060672;28;20047;-80
2023/05/19 02:29:10;;;;;;;13.20;5.65;;;;;;;8.63;100.00;101401.81;5055016;28;20021;-79
2023/05/19 02:31:35;;;;;;;7.85;5.43;;;;;;;8.64;100.00;101392.81;5052376;28;20025;-80
2023/05/19 02:34:01;;;;;;;13.63;5.60;;;;;;;8.66;100.00;101395.19;5052545;28;20445;-79
2023/05/19 02:36:27;;;;;;;7.57;4.97;;;;;;;8.69;100.00;101392.28;5053633;28;20033;-80
2023/05/19 02:38:52;;;;;;;11.82;4.78;;;;;;;8.70;100.00;101390.22;5053514;28;20100;-79
2023/05/19 02:41:17;;;;;;;6.88;4.50;;;;;;;8.68;100.00;101390.66;5052414;28;20074;-80
2023/05/19 02:43:43;;;;;;;8.55;4.85;;;;;;;8.71;100.00;101392.59;5053865;28;20024;-80
2023/05/19 02:46:09;;;;;;;9.95;4.85;;;;;;;8.72;100.00;101387.69;5052211;28;20374;-80
2023/05/19 02:48:34;;;;;;;12.20;4.55;;;;;;;8.71;100.00;101378.34;5052133;28;20092;-78
2023/05/19 02:51:00;;;;;;;7.28;4.78;;;;;;;8.70;100.00;101385.31;5053389;28;20304;-79
2023/05/19 02:53:25;;;;;;;6.30;4.60;;;;;;;8.67;100.00;101383.38;5053602;28;20116;-80
2023/05/19 02:55:51;;;;;;;21.85;5.15;;;;;;;8.68;100.00;101384.16;5052079;28;20457;-80
2023/05/19 02:58:17;;;;;;;12.18;5.20;;;;;;;8.70;100.00;101387.38;5052295;28;20021;-79
2023/05/19 03:00:44;;;;;;;13.68;6.18;;;;;;;8.71;100.00;101391.78;5052040;28;20032;-80
2023/05/19 03:03:09;;;;;;;15.73;6.90;;;;;;;8.72;100.00;101391.34;5053205;28;20064;-80
2023/05/19 03:05:35;;;;;;;12.82;6.30;;;;;;;8.74;100.00;101393.75;5053117;28;20454;-80
2023/05/19 03:08:00;;;;;;;11.32;6.20;;;;;;;8.74;100.00;101390.91;5053573;28;20021;-79
2023/05/19 03:10:25;;;;;;;9.88;6.13;;;;;;;8.70;100.00;101378.81;5035223;28;20021;-80
2023/05/19 03:12:51;;;;;;;10.77;5.13;;;;;;;8.80;100.00;101392.72;5053339;28;20100;-80
2023/05/19 03:15:18;;;;;;;9.82;4.35;;;;;;;8.82;100.00;101401.63;5051852;28;20382;-80
2023/05/19 03:17:43;;;;;;;7.65;5.03;;;;;;;8.81;100.00;101388.63;5051727;28;20417;-79
2023/05/19 03:20:09;;;;;;;10.60;5.15;;;;;;;8.87;100.00;101390.91;5051606;28;20086;-80
2023/05/19 03:22:35;;;;;;;9.38;4.82;;;;;;;8.91;100.00;101395.25;5035119;28;20436;-80
2023/05/19 03:25:01;;;;;;;14.07;5.22;;;;;;;8.94;100.00;101402.09;5053153;28;20109;-78
2023/05/19 03:27:26;;;;;;;7.22;4.55;;;;;;;8.97;100.00;101386.94;5053293;28;20086;-81
2023/05/19 03:29:52;;;;;;;9.85;4.43;;;;;;;9.02;100.00;101394.91;5053047;28;20033;-80
2023/05/19 03:32:18;;;;;;;9.65;4.43;;;;;;;9.08;100.00;101398.78;5052989;28;20021;-81
2023/05/19 03:34:43;;;;;;;8.98;4.07;;;;;;;9.12;100.00;101391.72;5052698;28;20031;-80
2023/05/19 03:37:09;;;;;;;10.35;4.13;;;;;;;9.18;100.00;101392.75;5053380;28;20035;-78
2023/05/19 03:39:35;;;;;;;9.02;4.25;;;;;;;9.25;100.00;101394.56;5035411;28;20028;-78
2023/05/19 03:42:01;;;;;;;9.65;5.03;;;;;;;9.21;100.00;101377.56;5051619;28;20021;-78
2023/05/19 03:44:26;;;;;;;10.10;5.30;;;;;;;9.37;100.00;101385.22;5051492;28;20025;-79
2023/05/19 03:46:51;;;;;;;14.55;5.10;;;;;;;9.43;100.00;101385.44;5051474;28;20030;-80
2023/05/19 03:49:17;;;;;;;5.85;4.30;;;;;;;9.45;100.00;101382.91;5052496;28;20039;-79
2023/05/19 03:51:43;;;;;;;11.57;4.88;;;;;;;9.51;100.00;101389.63;5051274;28;20021;-78
2023/05/19 03:54:10;;;;;;;11.30;4.72;;;;;;;9.51;100.00;101381.88;5034926;28;20037;-78
2023/05/19 03:56:38;;;;;;;8.52;4.30;;;;;;;9.57;100.00;101382.09;5052174;28;20060;-79
2023/05/19 03:59:09;;;;;;;6.35;4.15;;;;;;;9.65;100.00;101386.28;5051502;28;20037;-79
2023/05/19 04:01:35;;;;;;;8.40;5.03;;;;;;;9.70;100.00;101385.72;5035794;28;20056;-80
2023/05/19 04:04:02;;;;;;;10.40;4.78;;;;;;;9.78;100.00;101394.88;5052988;28;20045;-80
2023/05/19 04:06:29;;;;;;;7.78;4.88;;;;;;;9.85;100.00;101398.25;5051549;28;20051;-79
2023/05/19 04:08:55;;;;;;;7.07;4.72;;;;;;;9.92;100.00;101395.16;5051853;28;20458;-79
2023/05/19 04:11:21;;;;;;;10.25;5.10;;;;;;;10.01;100.00;101388.72;5052959;28;20028;-80
2023/05/19 04:13:47;;;;;;;9.13;4.82;;;;;;;10.09;100.00;101390.06;5051529;28;20025;-78
2023/05/19 04:16:15;;;;;;;9.52;4.68;;;;;;;10.17;100.00;101387.75;5056590;28;20025;-79
2023/05/19 04:18:41;;;;;;;6.82;4.72;;;;;;;10.24;100.00;101394.00;5056910;28;20025;-79
2023/05/19 04:21:08;;;;;;;10.13;5.47;;;;;;;10.33;100.00;101399.00;5038927;28;20035;-78
2023/05/19 04:23:34;;;;;;;11.05;4.82;;;;;;;10.39;100.00;101392.22;5056813;28;20174;-78
2023/05/19 04:26:02;;;;;;;11.75;5.32;;;;;;;10.46;100.00;101391.94;5056732;28;20040;-78
2023/05/19 04:28:29;;;;;;;9.57;5.63;;;;;;;10.57;100.00;101390.75;5055408;28;20035;-79
2023/05/19 04:30:57;;;;;;;9.95;5.72;;;;;;;10.65;100.00;101394.91;5056280;28;20025;-78
2023/05/19 04:33:23;;;;;;;8.68;5.38;;;;;;;10.66;100.00;101373.66;5055085;28;20028;-79
2023/05/19 04:35:50;;;;;;;7.90;5.05;;;;;;;10.79;100.00;101394.38;5056584;28;20112;-80
2023/05/19 04:38:20;;;;;;;8.13;5.15;;;;;;;10.82;100.00;101382.81;5056208;28;20021;-79
2023/05/19 04:40:50;;;;;;;9.35;5.53;;;;;;;10.89;100.00;101384.56;5056292;28;20025;-79
2023/05/19 04:43:18;;;;;;;7.75;4.80;;;;;;;10.89;100.00;101381.72;5056268;28;20412;-81
2023/05/19 04:45:45;;;;;;;8.90;4.70;;;;;;;10.97;100.00;101380.19;5056087;28;20033;-77
2023/05/19 04:48:12;;;;;;;8.43;5.35;;;;;;;10.96;100.00;101393.69;5055905;28;20059;-84
2023/05/19 04:50:41;;;;;;;7.50;4.45;;;;;;;11.01;100.00;101394.34;5055893;28;20021;-80
2023/05/19 04:53:10;;;;;;;10.13;5.30;;;;;;;10.99;100.00;101389.88;5055214;28;20047;-82
2023/05/19 04:55:37;;;;;;;7.35;4.43;;;;;;;11.09;100.00;101393.56;5054667;28;20035;-75
2023/05/19 04:58:03;;;;;;;8.15;4.53;;;;;;;11.15;100.00;101393.78;5055798;28;20082;-74
2023/05/19 05:00:31;;;;;;;8.85;4.55;;;;;;;11.16;100.00;101386.81;5056212;28;20386;-76
2023/05/19 05:02:57;;;;;;;8.43;4.70;;;;;;;11.17;100.00;101382.69;5056145;28;20382;-75
2023/05/19 05:05:24;;;;;;;7.18;4.78;;;;;;;11.26;100.00;101388.44;5038038;28;20104;-77
2023/05/19 05:07:50;;;;;;;8.63;4.60;;;;;;;11.34;100.00;101389.72;5054528;28;20032;-75
2023/05/19 05:10:17;;;;;;;9.25;4.32;;;;;;;11.35;100.00;101394.19;5054584;28;20156;-75
2023/05/19 05:12:44;;;;;;;6.40;3.95;;;;;;;11.32;100.00;101392.28;5055700;28;20040;-74
2023/05/19 05:15:11;;;;;;;8.40;4.25;;;;;;;11.30;100.00;101394.81;5037728;28;20531;-74
2023/05/19 05:17:39;;;;;;;5.90;3.90;;;;;;;11.30;100.00;101404.19;5054954;28;20036;-74
2023/05/19 05:20:06;;;;;;;6.88;4.30;;;;;;;11.31;100.00;101396.41;5055612;28;20029;-74
2023/05/19 05:22:37;;;;;;;8.82;3.70;;;;;;;11.30;100.00;101400.53;5055243;28;20473;-75
2023/05/19 05:25:04;;;;;;;7.32;3.70;;;;;;;11.23;100.00;101406.53;5054144;28;20040;-74
2023/05/19 05:27:35;;;;;;;5.90;3.55;;;;;;;11.20;100.00;101404.63;5036067;28;20037;-72
2023/05/19 05:30:04;;;;;;;6.55;4.07;;;;;;;11.13;100.00;101399.16;5052330;28;20028;-73
2023/05/19 05:32:31;;;;;;;6.97;3.72;;;;;;;11.14;100.00;101395.84;5053459;28;20052;-74
2023/05/19 05:34:56;;;;;;;5.95;3.72;;;;;;;11.24;100.00;101399.53;5041869;28;20041;-74
2023/05/19 05:37:23;;;;;;;4.30;3.63;;;;;;;11.32;100.00;101392.28;5053189;28;20039;-74
2023/05/19 05:39:48;;;;;;;4.93;3.25;;;;;;;11.37;100.00;101394.50;5053072;28;20045;-73
2023/05/19 05:42:14;;;;;;;6.75;3.53;;;;;;;11.47;100.00;101395.34;5034925;28;20059;-74
2023/05/19 05:44:40;;;;;;;7.35;4.03;;;;;;;11.58;100.00;101396.47;5051920;28;20035;-73
2023/05/19 05:47:06;;;;;;;8.15;3.70;;;;;;;11.64;100.00;101402.38;5053419;28;20020;-73
2023/05/19 05:49:35;;;;;;;8.85;3.63;;;;;;;11.60;100.00;101396.81;5051611;28;20027;-74
2023/05/19 05:52:01;;;;;;;7.47;3.22;;;;;;;11.64;100.00;101402.38;5053111;28;20108;-75
2023/05/19 05:54:27;;;;;;;7.20;3.92;;;;;;;11.68;100.00;101400.94;5034978;28;20032;-74
2023/05/19 05:56:53;;;;;;;5.80;3.58;;;;;;;11.79;100.00;101395.56;5052659;28;20053;-73
2023/05/19 05:59:19;;;;;;;6.93;3.78;;;;;;;11.96;100.00;101401.00;5051090;28;20036;-75
2023/05/19 06:01:44;;;;;;;6.15;4.78;;;;;;;12.19;100.00;101404.03;5052530;28;20063;-76
2023/05/19 06:04:10;;;;;;;6.00;4.07;;;;;;;12.34;100.00;101401.34;5052966;28;20053;-73
2023/05/19 06:06:36;;;;;;;8.90;3.90;;;;;;;12.46;100.00;101408.19;5053326;28;20397;-75
2023/05/19 06:09:02;;;;;;;6.60;3.38;;;;;;;12.50;100.00;101409.63;5053265;28;20497;-74
2023/05/19 06:11:28;;;;;;;8.30;3.50;;;;;;;12.45;100.00;101409.47;5036827;28;20120;-72
2023/05/19 06:13:53;;;;;;;5.53;3.42;;;;;;;12.42;100.00;101424.75;5036674;28;20107;-74
2023/05/19 06:16:19;;;;;;;6.50;4.13;;;;;;;12.39;100.00;101417.13;5054473;28;20060;-74
2023/05/19 06:18:44;;;;;;;7.97;3.67;;;;;;;12.25;100.00;101421.41;5054373;28;20355;-75
2023/05/19 06:21:12;;;;;;;5.57;4.03;;;;;;;12.14;100.00;101426.81;5054383;28;20104;-76
2023/05/19 06:23:37;;;;;;;8.55;4.35;;;;;;;12.14;100.00;101415.34;5054554;28;20025;-74
2023/05/19 06:26:03;;;;;;;7.05;5.00;;;;;;;12.14;100.00;101419.00;5054171;28;20064;-74
2023/05/19 06:28:28;;;;;;;9.57;4.30;;;;;;;12.13;100.00;101419.47;5052915;28;20046;-74
2023/05/19 06:30:54;;;;;;;8.48;4.55;;;;;;;12.12;100.00;101415.00;5053075;28;20025;-74
2023/05/19 06:33:19;;;;;;;8.65;5.07;;;;;;;12.18;100.00;101413.91;5053074;28;20029;-74
2023/05/19 06:35:44;;;;;;;7.25;4.00;;;;;;;12.17;100.00;101414.38;5054012;28;20086;-74
2023/05/19 06:38:10;;;;;;;6.70;3.75;;;;;;;12.15;100.00;101419.81;5053469;28;20463;-75
2023/05/19 06:40:35;;;;;;;8.73;4.90;;;;;;;12.08;100.00;101420.09;5054125;28;20033;-74
2023/05/19 06:43:01;;;;;;;7.00;4.80;;;;;;;12.05;100.00;101421.06;5054311;28;20498;-75
2023/05/19 06:45:27;;;;;;;8.77;4.72;;;;;;;12.12;100.00;101424.41;5054221;28;20090;-74
2023/05/19 06:47:53;;;;;;;7.32;4.57;;;;;;;12.15;100.00;101432.06;5053853;28;20433;-74
2023/05/19 06:50:18;;;;;;;7.20;4.35;;;;;;;12.09;100.00;101418.84;5053774;28;20025;-74
2023/05/19 06:52:45;;;;;;;6.05;4.25;;;;;;;12.10;100.00;101426.16;5053690;28;20032;-73
2023/05/19 06:55:11;;;;;;;8.60;4.97;;;;;;;12.09;100.00;101419.63;5053803;28;20057;-74
2023/05/19 06:57:36;;;;;;;7.20;4.00;;;;;;;11.96;100.00;101421.84;5053504;28;20143;-75
2023/05/19 07:00:03;;;;;;;7.32;4.53;;;;;;;11.94;100.00;101424.41;5053777;28;20382;-74
2023/05/19 07:02:28;;;;;;;6.15;4.13;;;;;;;11.99;100.00;101426.63;5053708;28;20024;-75
2023/05/19 07:04:53;;;;;;;9.27;4.00;;;;;;;12.07;100.00;101427.09;5053582;28;20025;-73
2023/05/19 07:07:19;;;;;;;8.90;4.28;;;;;;;12.08;100.00;101431.56;5053385;28;20475;-74
2023/05/19 07:09:45;;;;;;;6.10;3.47;;;;;;;12.02;100.00;101425.66;5053688;28;20081;-78
2023/05/19 07:12:10;;;;;;;8.43;4.00;;;;;;;11.99;100.00;101431.56;5053683;28;20028;-78
2023/05/19 07:14:37;;;;;;;9.07;4.57;;;;;;;11.98;100.00;101427.09;5053517;28;20060;-78
2023/05/19 07:17:03;;;;;;;8.88;3.85;;;;;;;12.09;100.00;101425.38;5052040;28;20032;-77
2023/05/19 07:19:28;;;;;;;6.05;3.33;;;;;;;12.18;100.00;101427.44;5053147;28;20025;-77
2023/05/19 07:21:55;;;;;;;6.53;3.63;;;;;;;12.27;100.00;101441.75;5053363;28;20108;-78
2023/05/19 07:24:21;;;;;;;9.68;4.53;;;;;;;12.27;100.00;101436.03;5053446;28;20029;-77
2023/05/19 07:26:46;;;;;;;7.55;3.55;;;;;;;12.27;100.00;101436.03;5035572;28;20033;-77
2023/05/19 07:29:12;;;;;;;4.95;3.35;;;;;;;12.20;100.00;101440.03;5053308;28;20043;-78
2023/05/19 07:31:37;;;;;;;8.48;3.33;;;;;;;12.23;100.00;101439.06;5053192;28;20037;-77
2023/05/19 07:34:03;;;;;;;4.22;3.13;;;;;;;12.22;100.00;101434.59;5053096;28;20036;-77
2023/05/19 07:36:30;;;;;;;5.25;3.28;;;;;;;12.23;100.00;101444.78;5053213;28;20025;-78
2023/05/19 07:38:57;;;;;;;7.13;4.57;;;;;;;12.22;100.00;101445.25;5052199;28;20423;-78
2023/05/19 07:41:25;;;;;;;6.25;3.92;;;;;;;12.21;100.00;101433.00;5051984;28;20679;-76
2023/05/19 07:43:59;;;;;;;7.72;3.88;;;;;;;12.23;100.00;101436.19;5053127;28;20037;-80
2023/05/19 07:46:24;;;;;;;8.32;4.30;;;;;;;12.21;100.00;101432.19;5052745;28;20110;-77
2023/05/19 07:48:50;;;;;;;5.93;3.45;;;;;;;12.34;100.00;101440.66;5052495;28;20037;-78
2023/05/19 07:51:16;;;;;;;5.95;3.55;;;;;;;12.44;100.00;101436.56;5056018;28;20070;-79
2023/05/19 07:53:41;;;;;;;8.30;3.03;;;;;;;12.54;100.00;101444.69;5056956;28;20041;-79
2023/05/19 07:56:07;;;;;;;5.70;3.20;;;;;;;12.52;100.00;101446.41;5057050;28;20045;-77
2023/05/19 07:58:33;;;;;;;6.88;3.47;;;;;;;12.46;100.00;101437.66;5057074;28;20401;-79
2023/05/19 08:00:59;;;;;;;6.95;3.83;;;;;;;12.39;100.00;101440.84;5056189;28;20048;-77
2023/05/19 08:03:25;;;;;;;7.38;3.33;;;;;;;12.42;100.00;101451.34;5056903;28;20126;-77
2023/05/19 08:05:52;;;;;;;5.47;3.05;;;;;;;12.48;100.00;101437.97;5056075;28;20037;-77
2023/05/19 08:08:18;;;;;;;4.03;2.78;;;;;;;12.57;100.00;101440.03;5056901;28;20035;-78
2023/05/19 08:10:44;;;;;;;9.75;3.85;;;;;;;12.69;100.00;101439.88;5056584;28;20367;-77
2023/05/19 08:13:10;;;;;;;4.97;2.90;;;;;;;12.84;100.00;101434.28;5055765;28;20090;-79
2023/05/19 08:15:42;;;;;;;5.20;2.50;;;;;;;12.95;100.00;101439.50;5055912;28;20041;-78
2023/05/19 08:18:07;;;;;;;9.50;2.70;;;;;;;13.08;100.00;101434.38;5055578;28;20037;-79
2023/05/19 08:20:34;;;;;;;4.20;2.17;;;;;;;13.29;100.00;101430.47;5055581;28;20031;-78
2023/05/19 08:23:00;;;;;;;3.83;2.25;;;;;;;13.43;100.00;101434.72;5056813;28;20025;-78
2023/05/19 08:25:26;;;;;;;3.15;1.98;;;;;;;13.52;100.00;101440.44;5057121;28;20041;-78
2023/05/19 08:27:52;;;;;;;3.13;2.10;;;;;;;13.64;100.00;101433.66;5055206;28;20036;-80
2023/05/19 08:30:18;;;;;;;4.22;1.90;;;;;;;13.78;100.00;101437.91;5055061;28;20382;-78
2023/05/19 08:32:44;;;;;;;2.58;2.00;;;;;;;13.99;100.00;101436.81;5054444;28;20099;-77
2023/05/19 08:35:10;;;;;;;2.55;2.28;;;;;;;14.20;100.00;101435.72;5056682;28;20020;-77
2023/05/19 08:37:37;;;;;;;4.53;2.47;;;;;;;14.41;100.00;101425.97;5055866;28;20482;-78
2023/05/19 08:40:07;;;;;;;7.72;2.78;;;;;;;14.60;100.00;101434.44;5055413;28;20040;-77
2023/05/19 08:42:34;;;;;;;5.57;2.33;;;;;;;14.73;100.00;101434.94;5056125;28;20451;-78
2023/05/19 08:45:02;;;;;;;4.40;2.28;;;;;;;14.62;100.00;101437.63;5055830;28;20032;-77
2023/05/19 08:47:30;;;;;;;4.47;3.13;;;;;;;14.66;100.00;101432.47;5055287;28;20028;-78
2023/05/19 08:50:06;;;;;;;6.45;2.20;;;;;;;14.91;100.00;101429.03;5056073;28;20374;-77
2023/05/19 08:52:40;;;;;;;4.40;2.00;;;;;;;15.20;100.00;101434.78;5039592;28;20039;-79
2023/05/19 08:55:12;;;;;;;2.53;1.77;;;;;;;15.43;100.00;101438.00;5055778;28;20086;-77
2023/05/19 08:57:39;;;;;;;4.80;2.30;;;;;;;15.66;100.00;101437.88;5053299;28;20052;-80
2023/05/19 09:00:14;;;;;;;5.20;2.35;;;;;;;15.93;100.00;101430.13;5054568;28;20053;-79
2023/05/19 09:02:41;;;;;;;4.45;1.55;;;;;;;16.23;100.00;101433.69;5056057;28;20029;-79
2023/05/19 09:05:09;;;;;;;3.63;1.90;;;;;;;16.46;95.54;101424.78;5038469;28;20131;-79
2023/05/19 09:07:36;;;;;;;6.75;2.60;;;;;;;16.50;94.19;101427.47;5055954;28;20056;-79
2023/05/19 09:10:03;;;;;;;4.80;2.70;;;;;;;16.72;96.43;101424.06;5054501;28;20535;-79
2023/05/19 09:12:30;;;;;;;13.32;3.08;;;;;;;16.95;94.62;101429.53;5054877;28;20384;-80
2023/05/19 09:14:56;;;;;;;4.32;2.67;;;;;;;17.07;92.62;101427.56;5053406;28;20073;-78
2023/05/19 09:17:22;;;;;;;6.47;2.88;;;;;;;17.16;90.04;101427.38;5055606;28;20033;-81
2023/05/19 09:19:50;;;;;;;7.18;2.55;;;;;;;17.20;90.11;101418.47;5054513;28;20025;-82
2023/05/19 09:22:19;;;;;;;6.55;2.72;;;;;;;17.25;90.32;101420.59;5037880;28;20116;-79
2023/05/19 09:24:46;;;;;;;4.80;2.83;;;;;;;17.35;91.02;101414.13;5037658;28;20025;-77
2023/05/19 09:27:22;;;;;;;7.65;2.72;;;;;;;17.49;86.88;101423.97;5037657;28;20531;-78
2023/05/19 09:29:49;;;;;;;3.72;2.75;;;;;;;17.59;87.96;101416.69;5055766;28;20086;-77
2023/05/19 09:32:26;;;;;;;4.38;2.67;;;;;;;17.94;87.52;101410.59;5037789;28;20032;-78
2023/05/19 09:34:55;;;;;;;4.90;3.10;;;;;;;18.10;83.89;101420.66;5037484;28;20032;-78
2023/05/19 09:37:23;;;;;;;5.47;3.13;;;;;;;18.15;84.76;101417.81;5054099;28;20028;-77
2023/05/19 09:39:51;;;;;;;5.32;3.22;;;;;;;18.23;84.17;101406.50;5055349;28;20029;-79
2023/05/19 09:42:28;;;;;;;5.65;3.40;;;;;;;18.26;83.79;101405.50;5037904;28;20390;-77
2023/05/19 09:45:05;;;;;;;4.32;3.38;;;;;;;18.25;84.17;101401.00;5055129;28;20033;-79
2023/05/19 09:47:39;;;;;;;6.22;3.78;;;;;;;18.25;82.67;101407.59;5037533;28;20057;-79
2023/05/19 09:50:07;;;;;;;10.73;4.47;;;;;;;18.29;82.75;101410.22;5053727;28;20176;-77
2023/05/19 09:52:38;;;;;;;7.72;3.75;;;;;;;17.90;82.87;101397.69;5037032;28;20036;-75
2023/05/19 09:55:05;;;;;;;5.27;4.10;;;;;;;17.69;84.83;101388.38;5053933;28;20045;-77
2023/05/19 09:57:36;;;;;;;6.88;4.13;;;;;;;17.90;86.10;101389.00;5053188;28;20298;-77
2023/05/19 10:00:13;;;;;;;5.63;3.97;;;;;;;18.00;84.28;101394.06;5054887;28;20037;-76
2023/05/19 10:02:41;;;;;;;5.25;3.65;;;;;;;18.02;83.62;101382.00;5054821;28;20023;-78
2023/05/19 10:05:10;;;;;;;7.90;4.22;;;;;;;18.00;82.78;101385.38;5053477;28;20112;-76
2023/05/19 10:07:36;;;;;;;6.65;3.75;;;;;;;17.87;80.57;101392.94;5053398;28;20111;-78
2023/05/19 10:10:02;;;;;;;8.00;4.30;;;;;;;17.54;83.28;101388.53;5053462;28;20155;-78
2023/05/19 10:12:27;;;;;;;8.55;3.95;;;;;;;17.01;85.65;101379.69;5035658;28;20031;-77
2023/05/19 10:14:53;;;;;;;8.00;4.38;;;;;;;16.78;89.62;101376.63;5053112;28;20044;-79
2023/05/19 10:17:19;;;;;;;5.63;3.65;;;;;;;16.79;91.24;101375.34;5036569;28;20492;-78
2023/05/19 10:19:46;;;;;;;6.57;3.65;;;;;;;16.85;90.77;101378.25;5020013;28;20116;-78
2023/05/19 10:22:15;;;;;;;6.82;4.30;;;;;;;16.85;91.57;101370.38;5053209;28;20463;-78
2023/05/19 10:24:42;;;;;;;8.23;4.22;;;;;;;16.67;91.31;101370.75;5036463;28;20060;-77
2023/05/19 10:27:10;;;;;;;9.77;4.40;;;;;;;16.27;92.71;101370.78;5053236;28;20108;-80
2023/05/19 10:29:40;;;;;;;9.25;4.75;;;;;;;15.99;95.46;101362.63;5054506;28;20058;-78
2023/05/19 10:32:27;;;;;;;8.23;4.22;;;;;;;15.82;97.52;101361.59;5036283;28;20546;-83
2023/05/19 10:35:06;;;;;;;6.78;4.57;;;;;;;15.73;99.83;101361.75;5050681;28;20044;-77
2023/05/19 10:37:54;;;;;;;7.57;4.35;;;;;;;15.64;100.00;101359.78;5054020;28;20043;-76
2023/05/19 10:40:33;;;;;;;8.57;4.43;;;;;;;15.54;100.00;101366.94;5052696;28;20051;-78
2023/05/19 10:43:20;;;;;;;7.90;4.70;;;;;;;15.65;100.00;101366.34;5054166;28;20029;-83
2023/05/19 10:45:54;;;;;;;12.30;5.15;;;;;;;15.76;100.00;101362.84;5054375;28;20033;-83
2023/05/19 10:48:21;;;;;;;10.90;6.25;;;;;;;15.85;100.00;101360.59;5058516;28;20381;-83
2023/05/19 10:50:59;;;;;;;8.32;5.57;;;;;;;15.87;100.00;101360.88;5058642;28;20075;-85
2023/05/19 10:53:33;;;;;;;11.30;7.30;;;;;;;15.82;100.00;101366.56;5059314;28;20021;-83
2023/05/19 10:56:05;;;;;;;15.57;7.45;;;;;;;15.85;100.00;101372.13;5055834;28;20045;-80
2023/05/19 10:58:48;;;;;;;13.18;5.95;;;;;;;15.81;100.00;101370.75;5052388;28;20041;-79
2023/05/19 11:01:17;;;;;;;9.93;6.32;;;;;;;15.66;100.00;101377.34;5053987;28;20041;-79
2023/05/19 11:03:55;;;;;;;10.77;6.25;;;;;;;15.41;100.00;101366.50;5052326;28;20033;-80
2023/05/19 11:06:39;;;;;;;10.82;6.60;;;;;;;15.26;100.00;101374.38;5053744;28;20028;-80
2023/05/19 11:09:24;;;;;;;11.35;5.18;;;;;;;15.15;100.00;101359.81;5053737;28;20547;-82
2023/05/19 11:11:52;;;;;;;8.95;5.18;;;;;;;14.99;100.00;101364.00;5053115;28;20066;-87
2023/05/19 11:14:21;;;;;;;11.75;6.47;;;;;;;14.72;100.00;101370.88;5037033;28;20032;-86
2023/05/19 11:16:49;;;;;;;9.23;5.07;;;;;;;14.57;100.00;101369.25;5036556;28;20035;-85
2023/05/19 11:19:29;;;;;;;8.15;4.70;;;;;;;14.57;100.00;101366.38;5052565;28;20033;-81
2023/05/19 11:22:10;;;;;;;9.35;4.70;;;;;;;14.59;100.00;101363.81;5054128;28;20035;-84
2023/05/19 11:24:50;;;;;;;7.55;4.72;;;;;;;14.63;100.00;101352.88;5035102;28;20163;-83